KBWP Airport (Harry Stern) Information

FAA: BWP - ICAO: KBWP

KBWP Airport Location

State North Dakota
County Richland
City Wahpeton
KBWP Airport is 1 miles south of Wahpeton, ND.
Latitude 46-14-39.4576N
Longitude 096-36-25.7614W
Elevation 968ft

KBWP Airport METARs

METAR KBWP 251735Z AUTO 15014KT 10SM CLR 09/02 A3013 RMK AO2
Altimeter 30.13"
Temperature 9.0°C (48.2°F)
Wind 150° at 14KT
Clouds Skies are clear.
Visibility 10.0mi
Time observed: 2021-10-25T17:35:00Z

KBWP Airport Details

Status Operational
Activation November 1947
Ownership Public
Usage Public
Chart TWIN CITIES
ATC on-site No
Beacon schedule sunset-sunrise
Beacon color clear green

KBWP Airport Contacts

Owner WAHPETON ARPT AUTH
Owner address 1251 PEGASUS ROAD, WAHPETON, ND 58075
Owner phone 701-642-5777
Manager JIM VOLLER
Manager address 1310 89TH ST SE, STRASBURG, ND 58573
Manager phone 701-321-1127

KBWP Airport (Harry Stern) Radio Frequencies

KBWP (Airport) Radio Frequencies

UNICOM 123
Common traffic advisory frequency (CTAF) 123